EWG4DV EDDK-LEPA
Flight info
| Callsign | EWG4DV |
|---|---|
| Flight time | 1h 54m |
| Altitude | 35000 |
| Route | NVO3F/13L NVO Y868 NAVAK Z283 SOPOK DCT ROUSY DCT GTQ DCT POGOL DCT LASAT DCT MOROK DCT GILIR/N0439F370 DCT GEVEA DCT INCUS DCT BALSI DCT RETNO DCT TUPOX DCT MTG DCT DIVKO DCT VATIR DCT PIVUS DCT BODEQ DCT VERSO L129 LUNIK |
| Aircraft | A320/M-SDE3FGHIRWY/LB1 |
Departure
| Time | 2026-04-22 19:23 |
|---|---|
| Airport | Cologne Bonn Airport (EDDK) |
Arrival
| Time | 2026-04-22 21:18 |
|---|---|
| Airport | Palma de Mallorca Airport (LEPA) |
| Time | Latitude | Longitude | Altitude | Speed | Heading |
|---|---|---|---|---|---|
| 2026-04-22 18:14 | 50.88195 | 7.11900 | 230 ft | 0 kts | 216° |
| 2026-04-22 18:59 | 50.88212 | 7.11919 | 232 ft | 4 kts | 212° |
| 2026-04-22 18:59 | 50.88236 | 7.11938 | 234 ft | 4 kts | 189° |
| 2026-04-22 19:00 | 50.88256 | 7.11934 | 230 ft | 2 kts | 127° |
| 2026-04-22 19:00 | 50.88257 | 7.11932 | 230 ft | 0 kts | 126° |
| 2026-04-22 19:03 | 50.88242 | 7.11965 | 230 ft | 5 kts | 123° |
| 2026-04-22 19:04 | 50.88232 | 7.12009 | 230 ft | 4 kts | 98° |
| 2026-04-22 19:04 | 50.88232 | 7.12072 | 230 ft | 7 kts | 98° |
| 2026-04-22 19:04 | 50.88209 | 7.12124 | 231 ft | 6 kts | 127° |
| 2026-04-22 19:04 | 50.88171 | 7.12211 | 230 ft | 11 kts | 123° |
| 2026-04-22 19:05 | 50.88155 | 7.12314 | 230 ft | 9 kts | 84° |
| 2026-04-22 19:05 | 50.88143 | 7.12410 | 231 ft | 9 kts | 125° |
| 2026-04-22 19:05 | 50.88104 | 7.12473 | 230 ft | 8 kts | 136° |
| 2026-04-22 19:05 | 50.88066 | 7.12530 | 230 ft | 7 kts | 137° |
| 2026-04-22 19:06 | 50.88036 | 7.12573 | 230 ft | 5 kts | 137° |
| 2026-04-22 19:06 | 50.88015 | 7.12605 | 230 ft | 2 kts | 136° |
| 2026-04-22 19:06 | 50.88014 | 7.12607 | 230 ft | 0 kts | 136° |
| 2026-04-22 19:09 | 50.88010 | 7.12613 | 230 ft | 4 kts | 136° |
| 2026-04-22 19:09 | 50.87990 | 7.12667 | 234 ft | 4 kts | 105° |
| 2026-04-22 19:10 | 50.87989 | 7.12671 | 234 ft | 0 kts | 102° |
| 2026-04-22 19:12 | 50.87989 | 7.12673 | 233 ft | 1 kts | 102° |
| 2026-04-22 19:12 | 50.87988 | 7.12679 | 233 ft | 1 kts | 99° |
| 2026-04-22 19:13 | 50.87988 | 7.12684 | 233 ft | 0 kts | 96° |
| 2026-04-22 19:17 | 50.87989 | 7.12708 | 232 ft | 4 kts | 83° |
| 2026-04-22 19:17 | 50.87994 | 7.12735 | 236 ft | 3 kts | 72° |
| 2026-04-22 19:18 | 50.87999 | 7.12764 | 234 ft | 0 kts | 74° |
| 2026-04-22 19:19 | 50.88000 | 7.12771 | 235 ft | 5 kts | 74° |
| 2026-04-22 19:20 | 50.88011 | 7.12879 | 237 ft | 11 kts | 90° |
| 2026-04-22 19:20 | 50.87994 | 7.12981 | 239 ft | 9 kts | 129° |
| 2026-04-22 19:20 | 50.87978 | 7.13008 | 240 ft | 0 kts | 135° |
| 2026-04-22 19:22 | 50.87973 | 7.13016 | 240 ft | 11 kts | 135° |
| 2026-04-22 19:22 | 50.87715 | 7.13392 | 246 ft | 85 kts | 137° |
| 2026-04-22 19:22 | 50.87127 | 7.14244 | 259 ft | 142 kts | 137° |
| 2026-04-22 19:23 | 50.86290 | 7.15457 | 383 ft | 175 kts | 136° |
| 2026-04-22 19:23 | 50.85382 | 7.16725 | 1020 ft | 174 kts | 136° |
| 2026-04-22 19:23 | 50.84470 | 7.17988 | 1724 ft | 176 kts | 135° |
| 2026-04-22 19:23 | 50.83506 | 7.19335 | 2132 ft | 192 kts | 134° |
| 2026-04-22 19:24 | 50.82466 | 7.20817 | 2516 ft | 210 kts | 135° |
| 2026-04-22 19:24 | 50.81323 | 7.22430 | 2926 ft | 228 kts | 135° |
| 2026-04-22 19:24 | 50.80022 | 7.23931 | 3622 ft | 238 kts | 154° |
| 2026-04-22 19:24 | 50.78366 | 7.24576 | 4146 ft | 257 kts | 169° |
| 2026-04-22 19:25 | 50.76570 | 7.24987 | 4956 ft | 264 kts | 170° |
| 2026-04-22 19:25 | 50.74737 | 7.25404 | 5759 ft | 269 kts | 170° |
| 2026-04-22 19:25 | 50.72868 | 7.25834 | 6547 ft | 274 kts | 170° |
| 2026-04-22 19:25 | 50.70945 | 7.25948 | 7293 ft | 282 kts | 188° |
| 2026-04-22 19:26 | 50.69103 | 7.24840 | 8034 ft | 289 kts | 214° |
| 2026-04-22 19:26 | 50.67719 | 7.22542 | 8773 ft | 294 kts | 241° |
| 2026-04-22 19:26 | 50.67092 | 7.19470 | 9216 ft | 297 kts | 268° |
| 2026-04-22 19:26 | 50.67329 | 7.16266 | 9321 ft | 294 kts | 284° |
| 2026-04-22 19:27 | 50.67754 | 7.13150 | 9333 ft | 294 kts | 284° |
| 2026-04-22 19:27 | 50.68177 | 7.09993 | 9350 ft | 296 kts | 284° |
| 2026-04-22 19:27 | 50.68596 | 7.06794 | 10044 ft | 299 kts | 283° |
| 2026-04-22 19:27 | 50.69016 | 7.03547 | 10628 ft | 311 kts | 284° |
| 2026-04-22 19:28 | 50.69465 | 7.00081 | 10819 ft | 334 kts | 283° |
| 2026-04-22 19:28 | 50.69938 | 6.96404 | 11209 ft | 348 kts | 283° |
| 2026-04-22 19:28 | 50.70417 | 6.92636 | 11848 ft | 353 kts | 283° |
| 2026-04-22 19:28 | 50.70899 | 6.88807 | 12544 ft | 357 kts | 283° |
| 2026-04-22 19:29 | 50.71383 | 6.84942 | 13239 ft | 361 kts | 284° |
| 2026-04-22 19:29 | 50.71873 | 6.81045 | 13931 ft | 364 kts | 284° |
| 2026-04-22 19:29 | 50.72368 | 6.77106 | 14556 ft | 368 kts | 284° |
| 2026-04-22 19:29 | 50.72864 | 6.73136 | 15166 ft | 371 kts | 284° |
| 2026-04-22 19:30 | 50.73192 | 6.70482 | 15573 ft | 372 kts | 284° |
| 2026-04-22 19:30 | 50.73853 | 6.65150 | 16375 ft | 376 kts | 284° |
| 2026-04-22 19:30 | 50.74359 | 6.61081 | 16984 ft | 379 kts | 284° |
| 2026-04-22 19:30 | 50.74866 | 6.56982 | 17579 ft | 382 kts | 284° |
| 2026-04-22 19:31 | 50.75377 | 6.52851 | 18160 ft | 385 kts | 284° |
| 2026-04-22 19:31 | 50.75891 | 6.48684 | 18721 ft | 389 kts | 284° |
| 2026-04-22 19:31 | 50.76407 | 6.44475 | 19233 ft | 391 kts | 284° |
| 2026-04-22 19:31 | 50.76926 | 6.40238 | 19752 ft | 394 kts | 284° |
| 2026-04-22 19:32 | 50.77445 | 6.35977 | 20198 ft | 397 kts | 284° |
| 2026-04-22 19:32 | 50.77967 | 6.31678 | 20461 ft | 399 kts | 284° |
| 2026-04-22 19:32 | 50.78231 | 6.27351 | 21005 ft | 406 kts | 270° |
| 2026-04-22 19:32 | 50.77673 | 6.22945 | 21519 ft | 414 kts | 251° |
| 2026-04-22 19:33 | 50.76253 | 6.18967 | 22024 ft | 420 kts | 231° |
| 2026-04-22 19:33 | 50.74094 | 6.15861 | 22510 ft | 424 kts | 212° |
| 2026-04-22 19:33 | 50.71488 | 6.13646 | 23005 ft | 426 kts | 206° |
| 2026-04-22 19:33 | 50.68833 | 6.11537 | 23490 ft | 429 kts | 206° |
| 2026-04-22 19:34 | 50.66103 | 6.09602 | 23953 ft | 430 kts | 196° |
| 2026-04-22 19:34 | 50.63178 | 6.08758 | 24326 ft | 429 kts | 180° |
| 2026-04-22 19:34 | 50.60190 | 6.08762 | 24696 ft | 431 kts | 177° |
| 2026-04-22 19:34 | 50.57227 | 6.08829 | 25071 ft | 431 kts | 177° |
| 2026-04-22 19:35 | 50.54223 | 6.08920 | 25463 ft | 433 kts | 177° |
| 2026-04-22 19:35 | 50.51210 | 6.09016 | 25862 ft | 434 kts | 177° |
| 2026-04-22 19:35 | 50.49172 | 6.09077 | 26132 ft | 435 kts | 177° |
| 2026-04-22 19:35 | 50.45149 | 6.09185 | 26679 ft | 436 kts | 177° |
| 2026-04-22 19:36 | 50.42116 | 6.09258 | 27094 ft | 436 kts | 178° |
| 2026-04-22 19:36 | 50.39076 | 6.09331 | 27519 ft | 437 kts | 178° |
| 2026-04-22 19:36 | 50.36038 | 6.09400 | 27946 ft | 437 kts | 178° |
| 2026-04-22 19:36 | 50.32994 | 6.09471 | 28363 ft | 437 kts | 178° |
| 2026-04-22 19:37 | 50.29998 | 6.09542 | 28799 ft | 437 kts | 178° |
| 2026-04-22 19:37 | 50.26957 | 6.09616 | 29246 ft | 437 kts | 178° |
| 2026-04-22 19:37 | 50.23924 | 6.09689 | 29701 ft | 436 kts | 178° |
| 2026-04-22 19:37 | 50.20893 | 6.09760 | 30163 ft | 435 kts | 178° |
| 2026-04-22 19:38 | 50.17869 | 6.09833 | 30594 ft | 434 kts | 178° |
| 2026-04-22 19:38 | 50.14852 | 6.09905 | 30985 ft | 433 kts | 178° |
| 2026-04-22 19:38 | 50.11842 | 6.09978 | 31383 ft | 432 kts | 178° |
| 2026-04-22 19:38 | 50.08842 | 6.10052 | 31788 ft | 430 kts | 178° |
| 2026-04-22 19:39 | 50.05852 | 6.10125 | 32197 ft | 429 kts | 178° |
| 2026-04-22 19:39 | 50.02876 | 6.10196 | 32611 ft | 427 kts | 178° |
| 2026-04-22 19:39 | 49.99947 | 6.10267 | 33028 ft | 425 kts | 178° |
| 2026-04-22 19:39 | 49.97000 | 6.10339 | 33453 ft | 423 kts | 178° |
| 2026-04-22 19:40 | 49.94069 | 6.10409 | 33885 ft | 420 kts | 179° |
| 2026-04-22 19:40 | 49.91159 | 6.10474 | 34316 ft | 416 kts | 179° |
| 2026-04-22 19:40 | 49.88270 | 6.10541 | 34599 ft | 416 kts | 179° |
| 2026-04-22 19:40 | 49.85367 | 6.10613 | 34721 ft | 420 kts | 179° |
| 2026-04-22 19:41 | 49.82435 | 6.10686 | 34839 ft | 423 kts | 179° |
| 2026-04-22 19:41 | 49.79478 | 6.10755 | 34957 ft | 427 kts | 179° |
| 2026-04-22 19:41 | 49.76498 | 6.10819 | 35075 ft | 430 kts | 179° |
| 2026-04-22 19:41 | 49.73539 | 6.10913 | 35225 ft | 432 kts | 178° |
| 2026-04-22 19:42 | 49.70525 | 6.11047 | 35295 ft | 436 kts | 178° |
| 2026-04-22 19:42 | 49.64365 | 6.11383 | 35303 ft | 449 kts | 178° |
| 2026-04-22 19:43 | 49.54821 | 6.11918 | 35303 ft | 466 kts | 178° |
| 2026-04-22 19:43 | 49.48269 | 6.12245 | 35304 ft | 475 kts | 179° |
| 2026-04-22 19:44 | 49.41694 | 6.12567 | 35305 ft | 476 kts | 179° |
| 2026-04-22 19:44 | 49.35071 | 6.12895 | 35297 ft | 476 kts | 179° |
| 2026-04-22 19:45 | 49.28432 | 6.13230 | 35304 ft | 478 kts | 179° |
| 2026-04-22 19:45 | 49.21795 | 6.13560 | 35298 ft | 478 kts | 179° |
| 2026-04-22 19:46 | 49.15146 | 6.13899 | 35299 ft | 478 kts | 179° |
| 2026-04-22 19:46 | 49.08500 | 6.14226 | 35297 ft | 478 kts | 179° |
| 2026-04-22 19:47 | 49.01892 | 6.14556 | 35303 ft | 479 kts | 179° |
| 2026-04-22 19:47 | 48.95235 | 6.14894 | 35302 ft | 479 kts | 179° |
| 2026-04-22 19:48 | 48.88577 | 6.15231 | 35296 ft | 479 kts | 179° |
| 2026-04-22 19:48 | 48.81907 | 6.15562 | 35275 ft | 480 kts | 179° |
| 2026-04-22 19:49 | 48.75235 | 6.15885 | 35273 ft | 480 kts | 179° |
| 2026-04-22 19:49 | 48.68559 | 6.16206 | 35274 ft | 480 kts | 179° |
| 2026-04-22 19:50 | 48.61923 | 6.16530 | 35274 ft | 480 kts | 179° |
| 2026-04-22 19:50 | 48.55248 | 6.16861 | 35274 ft | 480 kts | 179° |
| 2026-04-22 19:51 | 48.48572 | 6.17197 | 35250 ft | 480 kts | 179° |
| 2026-04-22 19:51 | 48.41893 | 6.17522 | 35250 ft | 480 kts | 180° |
| 2026-04-22 19:52 | 48.35209 | 6.17837 | 35247 ft | 480 kts | 180° |
| 2026-04-22 19:52 | 48.28528 | 6.18155 | 35247 ft | 481 kts | 180° |
| 2026-04-22 19:53 | 48.21839 | 6.18485 | 35251 ft | 481 kts | 180° |
| 2026-04-22 19:53 | 48.15183 | 6.18800 | 35251 ft | 482 kts | 180° |
| 2026-04-22 19:54 | 48.08481 | 6.19118 | 35249 ft | 482 kts | 180° |
| 2026-04-22 19:54 | 48.01776 | 6.19450 | 35245 ft | 483 kts | 180° |
| 2026-04-22 19:55 | 47.95060 | 6.19769 | 35241 ft | 483 kts | 180° |
| 2026-04-22 19:55 | 47.88341 | 6.20083 | 35233 ft | 483 kts | 181° |
| 2026-04-22 19:56 | 47.81622 | 6.20397 | 35235 ft | 484 kts | 181° |
| 2026-04-22 19:56 | 47.74917 | 6.20714 | 35224 ft | 485 kts | 181° |
| 2026-04-22 19:57 | 47.68169 | 6.21038 | 35225 ft | 485 kts | 181° |
| 2026-04-22 19:57 | 47.61419 | 6.21357 | 35216 ft | 486 kts | 182° |
| 2026-04-22 19:58 | 47.54622 | 6.21673 | 35219 ft | 490 kts | 181° |
| 2026-04-22 19:58 | 47.47805 | 6.21990 | 35220 ft | 490 kts | 181° |
| 2026-04-22 20:00 | 47.23962 | 6.23105 | 35215 ft | 490 kts | 181° |
| 2026-04-22 20:01 | 47.17136 | 6.23422 | 35212 ft | 492 kts | 182° |
| 2026-04-22 20:01 | 47.10338 | 6.23730 | 35210 ft | 492 kts | 182° |
| 2026-04-22 20:02 | 47.03521 | 6.23552 | 35211 ft | 488 kts | 190° |
| 2026-04-22 20:02 | 46.96753 | 6.22648 | 35211 ft | 489 kts | 190° |
| 2026-04-22 20:03 | 46.89982 | 6.21743 | 35206 ft | 489 kts | 190° |
| 2026-04-22 20:03 | 46.83258 | 6.20842 | 35207 ft | 489 kts | 190° |
| 2026-04-22 20:04 | 46.76487 | 6.19941 | 35207 ft | 488 kts | 190° |
| 2026-04-22 20:04 | 46.69717 | 6.19040 | 35204 ft | 489 kts | 190° |
| 2026-04-22 20:05 | 46.62942 | 6.18148 | 35203 ft | 489 kts | 190° |
| 2026-04-22 20:05 | 46.56166 | 6.17267 | 35201 ft | 489 kts | 190° |
| 2026-04-22 20:06 | 46.49441 | 6.16377 | 35200 ft | 488 kts | 190° |
| 2026-04-22 20:06 | 46.42669 | 6.15488 | 35198 ft | 489 kts | 190° |
| 2026-04-22 20:07 | 46.35893 | 6.14602 | 35196 ft | 489 kts | 190° |
| 2026-04-22 20:07 | 46.29121 | 6.13712 | 35193 ft | 489 kts | 190° |
| 2026-04-22 20:08 | 46.22405 | 6.12740 | 35193 ft | 487 kts | 193° |
| 2026-04-22 20:08 | 46.15715 | 6.11272 | 35195 ft | 486 kts | 195° |
| 2026-04-22 20:09 | 46.09048 | 6.09612 | 35190 ft | 486 kts | 195° |
| 2026-04-22 20:09 | 46.02362 | 6.08054 | 35166 ft | 487 kts | 194° |
| 2026-04-22 20:10 | 45.95699 | 6.06602 | 35164 ft | 488 kts | 194° |
| 2026-04-22 20:10 | 45.88979 | 6.05155 | 35161 ft | 489 kts | 194° |
| 2026-04-22 20:11 | 45.82258 | 6.03689 | 35165 ft | 488 kts | 194° |
| 2026-04-22 20:11 | 45.75543 | 6.02203 | 35170 ft | 488 kts | 195° |
| 2026-04-22 20:12 | 45.68880 | 6.00719 | 35162 ft | 488 kts | 195° |
| 2026-04-22 20:12 | 45.63299 | 5.99475 | 35164 ft | 488 kts | 195° |
| 2026-04-22 20:13 | 45.55459 | 5.97752 | 35166 ft | 488 kts | 195° |
| 2026-04-22 20:13 | 45.48749 | 5.96298 | 35165 ft | 488 kts | 194° |
| 2026-04-22 20:14 | 45.42143 | 5.94581 | 35137 ft | 484 kts | 199° |
| 2026-04-22 20:14 | 45.35592 | 5.92416 | 35165 ft | 482 kts | 200° |
| 2026-04-22 20:15 | 45.29063 | 5.90223 | 35164 ft | 482 kts | 199° |
| 2026-04-22 20:15 | 45.22510 | 5.88162 | 35155 ft | 482 kts | 199° |
| 2026-04-22 20:16 | 45.16001 | 5.86180 | 35167 ft | 481 kts | 199° |
| 2026-04-22 20:16 | 45.09457 | 5.84178 | 35165 ft | 481 kts | 199° |
| 2026-04-22 20:17 | 45.02918 | 5.82154 | 35152 ft | 481 kts | 199° |
| 2026-04-22 20:17 | 44.96390 | 5.80136 | 35167 ft | 480 kts | 199° |
| 2026-04-22 20:18 | 44.89900 | 5.78139 | 35168 ft | 480 kts | 199° |
| 2026-04-22 20:18 | 44.83370 | 5.76141 | 35155 ft | 480 kts | 199° |
| 2026-04-22 20:19 | 44.76835 | 5.74141 | 35168 ft | 480 kts | 199° |
| 2026-04-22 20:19 | 44.70303 | 5.72146 | 35168 ft | 480 kts | 199° |
| 2026-04-22 20:20 | 44.63777 | 5.70156 | 35167 ft | 480 kts | 198° |
| 2026-04-22 20:20 | 44.57291 | 5.68186 | 35173 ft | 480 kts | 198° |
| 2026-04-22 20:21 | 44.50778 | 5.66210 | 35176 ft | 479 kts | 198° |
| 2026-04-22 20:21 | 44.44257 | 5.64241 | 35179 ft | 479 kts | 198° |
| 2026-04-22 20:22 | 44.37773 | 5.62152 | 35176 ft | 474 kts | 205° |
| 2026-04-22 20:22 | 44.31690 | 5.58891 | 35187 ft | 471 kts | 208° |
| 2026-04-22 20:23 | 44.25593 | 5.55547 | 35187 ft | 471 kts | 208° |
| 2026-04-22 20:23 | 44.19490 | 5.52223 | 35188 ft | 471 kts | 208° |
| 2026-04-22 20:24 | 44.13428 | 5.48923 | 35193 ft | 471 kts | 208° |
| 2026-04-22 20:24 | 44.07324 | 5.45599 | 35193 ft | 471 kts | 208° |
| 2026-04-22 20:25 | 44.01229 | 5.42279 | 35198 ft | 471 kts | 208° |
| 2026-04-22 20:25 | 43.95119 | 5.38978 | 35198 ft | 471 kts | 208° |
| 2026-04-22 20:26 | 43.89052 | 5.35699 | 35180 ft | 471 kts | 207° |
| 2026-04-22 20:26 | 43.82955 | 5.32401 | 35173 ft | 470 kts | 207° |
| 2026-04-22 20:27 | 43.76868 | 5.29118 | 35185 ft | 469 kts | 207° |
| 2026-04-22 20:27 | 43.70787 | 5.25855 | 35170 ft | 469 kts | 207° |
| 2026-04-22 20:28 | 43.64748 | 5.22622 | 35193 ft | 468 kts | 207° |
| 2026-04-22 20:28 | 43.58677 | 5.19370 | 35189 ft | 468 kts | 207° |
| 2026-04-22 20:29 | 43.52605 | 5.16129 | 35191 ft | 468 kts | 207° |
| 2026-04-22 20:29 | 43.46532 | 5.12899 | 35191 ft | 468 kts | 207° |
| 2026-04-22 20:30 | 43.41484 | 5.10216 | 35191 ft | 468 kts | 207° |
| 2026-04-22 20:30 | 43.37630 | 5.07699 | 35193 ft | 459 kts | 218° |
| 2026-04-22 20:30 | 43.34994 | 5.05271 | 35189 ft | 456 kts | 221° |
| 2026-04-22 20:31 | 43.29774 | 5.00331 | 35182 ft | 456 kts | 220° |
| 2026-04-22 20:31 | 43.24538 | 4.95407 | 35173 ft | 456 kts | 220° |
| 2026-04-22 20:32 | 43.19352 | 4.90533 | 35166 ft | 455 kts | 220° |
| 2026-04-22 20:32 | 43.14133 | 4.85646 | 35164 ft | 454 kts | 220° |
| 2026-04-22 20:33 | 43.08915 | 4.80770 | 35164 ft | 454 kts | 220° |
| 2026-04-22 20:33 | 43.04505 | 4.76840 | 35160 ft | 458 kts | 214° |
| 2026-04-22 20:34 | 42.98026 | 4.71928 | 35165 ft | 458 kts | 214° |
| 2026-04-22 20:34 | 42.92447 | 4.67710 | 35159 ft | 458 kts | 214° |
| 2026-04-22 20:35 | 42.86870 | 4.63495 | 35163 ft | 458 kts | 214° |
| 2026-04-22 20:35 | 42.82231 | 4.59999 | 35163 ft | 458 kts | 214° |
| 2026-04-22 20:36 | 42.75749 | 4.55109 | 35164 ft | 458 kts | 214° |
| 2026-04-22 20:36 | 42.70173 | 4.50914 | 35163 ft | 458 kts | 214° |
| 2026-04-22 20:37 | 42.65534 | 4.47441 | 35158 ft | 458 kts | 214° |
| 2026-04-22 20:37 | 42.59953 | 4.43259 | 35157 ft | 458 kts | 214° |
| 2026-04-22 20:38 | 42.53463 | 4.38413 | 35161 ft | 458 kts | 214° |
| 2026-04-22 20:38 | 42.48821 | 4.34959 | 35160 ft | 458 kts | 214° |
| 2026-04-22 20:39 | 42.43239 | 4.30805 | 35157 ft | 458 kts | 214° |
| 2026-04-22 20:39 | 42.37656 | 4.26653 | 35158 ft | 458 kts | 214° |
| 2026-04-22 20:40 | 42.32070 | 4.22511 | 35152 ft | 458 kts | 214° |
| 2026-04-22 20:40 | 42.26478 | 4.18379 | 35145 ft | 458 kts | 213° |
| 2026-04-22 20:41 | 42.20922 | 4.14281 | 35153 ft | 458 kts | 213° |
| 2026-04-22 20:41 | 42.15328 | 4.10161 | 35153 ft | 458 kts | 213° |
| 2026-04-22 20:42 | 42.09736 | 4.06054 | 35146 ft | 458 kts | 213° |
| 2026-04-22 20:42 | 42.04133 | 4.01945 | 35140 ft | 459 kts | 213° |
| 2026-04-22 20:43 | 41.98565 | 3.97862 | 35142 ft | 459 kts | 213° |
| 2026-04-22 20:43 | 41.92870 | 3.93982 | 35139 ft | 463 kts | 205° |
| 2026-04-22 20:44 | 41.86540 | 3.91994 | 35141 ft | 470 kts | 193° |
| 2026-04-22 20:44 | 41.80093 | 3.90526 | 35141 ft | 470 kts | 193° |
| 2026-04-22 20:45 | 41.73692 | 3.89054 | 34810 ft | 468 kts | 193° |
| 2026-04-22 20:45 | 41.70468 | 3.88308 | 33292 ft | 473 kts | 193° |
| 2026-04-22 20:45 | 41.67223 | 3.87557 | 31965 ft | 473 kts | 193° |
| 2026-04-22 20:45 | 41.63994 | 3.86818 | 30974 ft | 466 kts | 193° |
| 2026-04-22 20:46 | 41.57841 | 3.85428 | 29930 ft | 433 kts | 193° |
| 2026-04-22 20:46 | 41.54923 | 3.84770 | 29430 ft | 417 kts | 193° |
| 2026-04-22 20:46 | 41.52153 | 3.84139 | 28959 ft | 403 kts | 193° |
| 2026-04-22 20:47 | 41.49437 | 3.83515 | 28507 ft | 393 kts | 193° |
| 2026-04-22 20:47 | 41.46744 | 3.82891 | 28058 ft | 391 kts | 193° |
| 2026-04-22 20:47 | 41.44076 | 3.82271 | 27618 ft | 388 kts | 193° |
| 2026-04-22 20:47 | 41.41427 | 3.81657 | 27185 ft | 385 kts | 193° |
| 2026-04-22 20:48 | 41.38800 | 3.81051 | 26767 ft | 382 kts | 193° |
| 2026-04-22 20:48 | 41.36189 | 3.80449 | 26343 ft | 379 kts | 193° |
| 2026-04-22 20:48 | 41.33602 | 3.79854 | 25938 ft | 377 kts | 193° |
| 2026-04-22 20:48 | 41.31060 | 3.79274 | 25534 ft | 374 kts | 193° |
| 2026-04-22 20:49 | 41.28502 | 3.78692 | 25135 ft | 372 kts | 193° |
| 2026-04-22 20:49 | 41.25963 | 3.78115 | 24733 ft | 369 kts | 193° |
| 2026-04-22 20:49 | 41.23444 | 3.77545 | 24334 ft | 366 kts | 193° |
| 2026-04-22 20:49 | 41.20939 | 3.76980 | 23923 ft | 364 kts | 193° |
| 2026-04-22 20:50 | 41.18449 | 3.76421 | 23481 ft | 362 kts | 193° |
| 2026-04-22 20:50 | 41.15980 | 3.75831 | 23052 ft | 358 kts | 197° |
| 2026-04-22 20:50 | 41.13633 | 3.74861 | 22648 ft | 351 kts | 206° |
| 2026-04-22 20:50 | 41.11400 | 3.73695 | 22243 ft | 348 kts | 205° |
| 2026-04-22 20:51 | 41.09147 | 3.72530 | 21842 ft | 347 kts | 205° |
| 2026-04-22 20:51 | 41.06907 | 3.71378 | 21441 ft | 345 kts | 205° |
| 2026-04-22 20:51 | 41.04678 | 3.70233 | 21032 ft | 343 kts | 205° |
| 2026-04-22 20:51 | 41.02459 | 3.69091 | 20619 ft | 341 kts | 205° |
| 2026-04-22 20:52 | 41.00249 | 3.67950 | 20199 ft | 340 kts | 205° |
| 2026-04-22 20:52 | 40.98047 | 3.66816 | 19809 ft | 339 kts | 205° |
| 2026-04-22 20:52 | 40.95878 | 3.65699 | 19411 ft | 339 kts | 205° |
| 2026-04-22 20:52 | 40.93686 | 3.64573 | 19008 ft | 338 kts | 206° |
| 2026-04-22 20:53 | 40.91495 | 3.63448 | 18604 ft | 338 kts | 205° |
| 2026-04-22 20:53 | 40.89302 | 3.62326 | 18166 ft | 338 kts | 205° |
| 2026-04-22 20:53 | 40.87112 | 3.61207 | 17760 ft | 336 kts | 205° |
| 2026-04-22 20:53 | 40.84938 | 3.60094 | 17350 ft | 334 kts | 205° |
| 2026-04-22 20:54 | 40.82774 | 3.58989 | 16966 ft | 333 kts | 205° |
| 2026-04-22 20:54 | 40.80620 | 3.57890 | 16578 ft | 331 kts | 205° |
| 2026-04-22 20:54 | 40.78476 | 3.56792 | 16187 ft | 330 kts | 206° |
| 2026-04-22 20:54 | 40.76342 | 3.55699 | 15798 ft | 329 kts | 206° |
| 2026-04-22 20:55 | 40.74242 | 3.54624 | 15415 ft | 328 kts | 205° |
| 2026-04-22 20:55 | 40.72120 | 3.53540 | 15027 ft | 327 kts | 205° |
| 2026-04-22 20:55 | 40.70004 | 3.52459 | 14643 ft | 326 kts | 205° |
| 2026-04-22 20:55 | 40.67896 | 3.51381 | 14246 ft | 325 kts | 205° |
| 2026-04-22 20:56 | 40.65791 | 3.50309 | 13851 ft | 324 kts | 205° |
| 2026-04-22 20:56 | 40.63694 | 3.49242 | 13428 ft | 322 kts | 205° |
| 2026-04-22 20:56 | 40.61611 | 3.48184 | 13032 ft | 320 kts | 205° |
| 2026-04-22 20:56 | 40.59568 | 3.47148 | 12633 ft | 318 kts | 205° |
| 2026-04-22 20:57 | 40.57512 | 3.46106 | 12240 ft | 316 kts | 205° |
| 2026-04-22 20:57 | 40.55469 | 3.45072 | 11859 ft | 314 kts | 205° |
| 2026-04-22 20:57 | 40.53438 | 3.44045 | 11455 ft | 312 kts | 205° |
| 2026-04-22 20:57 | 40.51414 | 3.43020 | 11051 ft | 311 kts | 205° |
| 2026-04-22 20:58 | 40.49398 | 3.41997 | 10640 ft | 310 kts | 205° |
| 2026-04-22 20:58 | 40.47392 | 3.40980 | 10261 ft | 308 kts | 205° |
| 2026-04-22 20:58 | 40.45429 | 3.39995 | 10137 ft | 297 kts | 203° |
| 2026-04-22 20:58 | 40.43458 | 3.39396 | 9918 ft | 295 kts | 189° |
| 2026-04-22 20:59 | 40.41413 | 3.39404 | 9840 ft | 295 kts | 181° |
| 2026-04-22 20:59 | 40.39366 | 3.39531 | 9772 ft | 295 kts | 181° |
| 2026-04-22 20:59 | 40.37317 | 3.39648 | 9705 ft | 294 kts | 181° |
| 2026-04-22 20:59 | 40.35276 | 3.39759 | 9611 ft | 294 kts | 181° |
| 2026-04-22 21:00 | 40.33235 | 3.39870 | 9495 ft | 293 kts | 181° |
| 2026-04-22 21:00 | 40.31199 | 3.39980 | 9393 ft | 293 kts | 181° |
| 2026-04-22 21:00 | 40.29162 | 3.40091 | 9282 ft | 293 kts | 181° |
| 2026-04-22 21:00 | 40.27129 | 3.40204 | 9171 ft | 292 kts | 181° |
| 2026-04-22 21:01 | 40.25126 | 3.40318 | 9064 ft | 292 kts | 181° |
| 2026-04-22 21:01 | 40.23098 | 3.40435 | 8947 ft | 291 kts | 181° |
| 2026-04-22 21:01 | 40.21072 | 3.40552 | 8835 ft | 291 kts | 181° |
| 2026-04-22 21:01 | 40.19053 | 3.40665 | 8724 ft | 290 kts | 180° |
| 2026-04-22 21:02 | 40.17036 | 3.40781 | 8617 ft | 290 kts | 180° |
| 2026-04-22 21:02 | 40.15020 | 3.40898 | 8504 ft | 290 kts | 180° |
| 2026-04-22 21:02 | 40.13003 | 3.41014 | 8396 ft | 290 kts | 180° |
| 2026-04-22 21:02 | 40.10994 | 3.41129 | 8286 ft | 289 kts | 180° |
| 2026-04-22 21:03 | 40.09013 | 3.41241 | 8177 ft | 289 kts | 180° |
| 2026-04-22 21:03 | 40.07008 | 3.41352 | 8068 ft | 288 kts | 180° |
| 2026-04-22 21:03 | 40.05005 | 3.41461 | 7960 ft | 288 kts | 180° |
| 2026-04-22 21:03 | 40.03007 | 3.41572 | 7855 ft | 287 kts | 180° |
| 2026-04-22 21:04 | 40.01009 | 3.41683 | 7738 ft | 287 kts | 180° |
| 2026-04-22 21:04 | 39.99019 | 3.41792 | 7627 ft | 286 kts | 180° |
| 2026-04-22 21:04 | 39.97029 | 3.41904 | 7510 ft | 286 kts | 180° |
| 2026-04-22 21:04 | 39.95070 | 3.42017 | 7392 ft | 285 kts | 180° |
| 2026-04-22 21:05 | 39.93091 | 3.42131 | 7293 ft | 284 kts | 180° |
| 2026-04-22 21:05 | 39.91116 | 3.42242 | 7183 ft | 284 kts | 180° |
| 2026-04-22 21:05 | 39.89144 | 3.42355 | 7070 ft | 283 kts | 180° |
| 2026-04-22 21:05 | 39.87174 | 3.42466 | 6957 ft | 283 kts | 180° |
| 2026-04-22 21:06 | 39.85211 | 3.42574 | 6847 ft | 282 kts | 180° |
| 2026-04-22 21:06 | 39.83249 | 3.42683 | 6738 ft | 282 kts | 180° |
| 2026-04-22 21:06 | 39.81291 | 3.42793 | 6629 ft | 281 kts | 179° |
| 2026-04-22 21:06 | 39.79339 | 3.42903 | 6522 ft | 281 kts | 179° |
| 2026-04-22 21:07 | 39.77388 | 3.43012 | 6405 ft | 280 kts | 179° |
| 2026-04-22 21:07 | 39.75468 | 3.43120 | 6292 ft | 280 kts | 179° |
| 2026-04-22 21:07 | 39.73531 | 3.43073 | 6178 ft | 277 kts | 193° |
| 2026-04-22 21:07 | 39.71786 | 3.42121 | 6075 ft | 273 kts | 218° |
| 2026-04-22 21:08 | 39.70520 | 3.40322 | 5867 ft | 269 kts | 243° |
| 2026-04-22 21:08 | 39.69979 | 3.38028 | 5811 ft | 269 kts | 266° |
| 2026-04-22 21:08 | 39.70013 | 3.35597 | 5711 ft | 270 kts | 272° |
| 2026-04-22 21:08 | 39.70094 | 3.33161 | 5607 ft | 270 kts | 272° |
| 2026-04-22 21:09 | 39.70172 | 3.30730 | 5499 ft | 270 kts | 272° |
| 2026-04-22 21:09 | 39.70249 | 3.28294 | 5391 ft | 270 kts | 272° |
| 2026-04-22 21:09 | 39.70329 | 3.25895 | 5289 ft | 270 kts | 272° |
| 2026-04-22 21:09 | 39.70411 | 3.23463 | 5181 ft | 270 kts | 272° |
| 2026-04-22 21:10 | 39.70488 | 3.21032 | 5076 ft | 270 kts | 272° |
| 2026-04-22 21:10 | 39.70562 | 3.18599 | 4968 ft | 269 kts | 272° |
| 2026-04-22 21:10 | 39.70632 | 3.16170 | 4861 ft | 269 kts | 272° |
| 2026-04-22 21:10 | 39.70703 | 3.13742 | 4752 ft | 269 kts | 272° |
| 2026-04-22 21:11 | 39.70775 | 3.11319 | 4637 ft | 265 kts | 272° |
| 2026-04-22 21:11 | 39.70641 | 3.09016 | 4536 ft | 246 kts | 256° |
| 2026-04-22 21:11 | 39.70052 | 3.07058 | 4532 ft | 231 kts | 240° |
| 2026-04-22 21:11 | 39.69219 | 3.05279 | 4536 ft | 230 kts | 239° |
| 2026-04-22 21:12 | 39.68392 | 3.03506 | 4533 ft | 229 kts | 239° |
| 2026-04-22 21:12 | 39.67565 | 3.01737 | 4450 ft | 232 kts | 238° |
| 2026-04-22 21:12 | 39.66734 | 2.99963 | 4133 ft | 222 kts | 238° |
| 2026-04-22 21:12 | 39.65965 | 2.98322 | 3861 ft | 207 kts | 238° |
| 2026-04-22 21:13 | 39.65243 | 2.96783 | 3631 ft | 191 kts | 238° |
| 2026-04-22 21:13 | 39.64583 | 2.95375 | 3370 ft | 175 kts | 238° |
| 2026-04-22 21:13 | 39.63972 | 2.94075 | 3143 ft | 168 kts | 237° |
| 2026-04-22 21:13 | 39.63370 | 2.92794 | 2923 ft | 165 kts | 237° |
| 2026-04-22 21:14 | 39.62772 | 2.91522 | 2724 ft | 164 kts | 237° |
| 2026-04-22 21:14 | 39.62188 | 2.90278 | 2498 ft | 160 kts | 237° |
| 2026-04-22 21:14 | 39.61612 | 2.89053 | 2282 ft | 158 kts | 237° |
| 2026-04-22 21:14 | 39.61038 | 2.87833 | 2073 ft | 158 kts | 237° |
| 2026-04-22 21:15 | 39.60465 | 2.86617 | 1863 ft | 158 kts | 237° |
| 2026-04-22 21:15 | 39.59892 | 2.85400 | 1656 ft | 158 kts | 237° |
| 2026-04-22 21:15 | 39.59320 | 2.84184 | 1436 ft | 157 kts | 237° |
| 2026-04-22 21:15 | 39.58760 | 2.82996 | 1236 ft | 156 kts | 238° |
| 2026-04-22 21:16 | 39.58197 | 2.81800 | 1037 ft | 155 kts | 238° |
| 2026-04-22 21:16 | 39.57638 | 2.80616 | 822 ft | 153 kts | 238° |
| 2026-04-22 21:16 | 39.57079 | 2.79440 | 623 ft | 153 kts | 238° |
| 2026-04-22 21:16 | 39.56519 | 2.78270 | 413 ft | 153 kts | 238° |
| 2026-04-22 21:17 | 39.55968 | 2.77097 | 232 ft | 153 kts | 238° |
| 2026-04-22 21:17 | 39.55423 | 2.75917 | 56 ft | 152 kts | 238° |
| 2026-04-22 21:17 | 39.54930 | 2.74880 | 38 ft | 109 kts | 238° |
| 2026-04-22 21:17 | 39.54615 | 2.74218 | 38 ft | 69 kts | 238° |
| 2026-04-22 21:18 | 39.54420 | 2.73800 | 38 ft | 33 kts | 239° |
| 2026-04-22 21:18 | 39.54303 | 2.73549 | 38 ft | 26 kts | 238° |
| 2026-04-22 21:18 | 39.54268 | 2.73365 | 38 ft | 21 kts | 270° |
| 2026-04-22 21:18 | 39.54269 | 2.73226 | 38 ft | 6 kts | 276° |
| 2026-04-22 21:19 | 39.54282 | 2.73186 | 37 ft | 4 kts | 305° |
| 2026-04-22 21:19 | 39.54303 | 2.73165 | 38 ft | 4 kts | 336° |
| 2026-04-22 21:19 | 39.54352 | 2.73197 | 38 ft | 11 kts | 55° |
| 2026-04-22 21:19 | 39.54412 | 2.73213 | 36 ft | 10 kts | 337° |
| 2026-04-22 21:20 | 39.54459 | 2.73248 | 38 ft | 8 kts | 55° |
| 2026-04-22 21:20 | 39.54495 | 2.73291 | 38 ft | 6 kts | 8° |
| 2026-04-22 21:20 | 39.54531 | 2.73279 | 38 ft | 5 kts | 344° |
| 2026-04-22 21:20 | 39.54542 | 2.73275 | 38 ft | 0 kts | 345° |